sensor_id;sensor_type;location;lat;lon;timestamp;P1;durP1;ratioP1;P2;durP2;ratioP2
35646;SDS011;28680;45.642;13.756;2022-12-20T00:01:17;27.10;;;14.25;;
35646;SDS011;28680;45.642;13.756;2022-12-20T00:03:49;26.45;;;13.30;;
35646;SDS011;28680;45.642;13.756;2022-12-20T00:06:17;26.52;;;13.77;;
35646;SDS011;28680;45.642;13.756;2022-12-20T00:08:44;28.88;;;14.88;;
35646;SDS011;28680;45.642;13.756;2022-12-20T00:11:10;28.25;;;14.77;;
35646;SDS011;28680;45.642;13.756;2022-12-20T00:13:38;26.45;;;14.88;;
35646;SDS011;28680;45.642;13.756;2022-12-20T00:16:15;28.38;;;14.25;;
35646;SDS011;28680;45.642;13.756;2022-12-20T00:18:46;32.22;;;15.40;;
35646;SDS011;28680;45.642;13.756;2022-12-20T00:21:25;28.95;;;15.00;;
35646;SDS011;28680;45.642;13.756;2022-12-20T00:23:52;27.15;;;14.70;;
35646;SDS011;28680;45.642;13.756;2022-12-20T00:26:20;31.13;;;14.60;;
35646;SDS011;28680;45.642;13.756;2022-12-20T00:28:49;28.85;;;15.57;;
35646;SDS011;28680;45.642;13.756;2022-12-20T00:31:15;27.00;;;14.20;;
35646;SDS011;28680;45.642;13.756;2022-12-20T00:33:44;27.83;;;14.50;;
35646;SDS011;28680;45.642;13.756;2022-12-20T00:36:12;27.90;;;14.57;;
35646;SDS011;28680;45.642;13.756;2022-12-20T00:38:39;29.77;;;15.30;;
35646;SDS011;28680;45.642;13.756;2022-12-20T00:41:06;28.17;;;14.52;;
35646;SDS011;28680;45.642;13.756;2022-12-20T00:43:39;27.73;;;14.55;;
35646;SDS011;28680;45.642;13.756;2022-12-20T00:46:07;29.05;;;14.82;;
35646;SDS011;28680;45.642;13.756;2022-12-20T00:48:35;31.10;;;15.35;;
35646;SDS011;28680;45.642;13.756;2022-12-20T00:51:06;26.52;;;15.10;;
35646;SDS011;28680;45.642;13.756;2022-12-20T00:53:35;30.42;;;15.52;;
35646;SDS011;28680;45.642;13.756;2022-12-20T00:56:02;29.27;;;15.15;;
35646;SDS011;28680;45.642;13.756;2022-12-20T00:58:28;26.10;;;14.02;;
35646;SDS011;28680;45.642;13.756;2022-12-20T01:00:55;28.10;;;14.27;;
35646;SDS011;28680;45.642;13.756;2022-12-20T01:03:21;27.15;;;14.75;;
35646;SDS011;28680;45.642;13.756;2022-12-20T01:05:51;26.02;;;14.13;;
35646;SDS011;28680;45.642;13.756;2022-12-20T01:08:20;27.67;;;14.35;;
35646;SDS011;28680;45.642;13.756;2022-12-20T01:10:57;28.05;;;14.95;;
35646;SDS011;28680;45.642;13.756;2022-12-20T01:13:27;27.92;;;14.00;;
35646;SDS011;28680;45.642;13.756;2022-12-20T01:15:53;29.13;;;14.07;;
35646;SDS011;28680;45.642;13.756;2022-12-20T01:18:19;27.77;;;14.55;;
35646;SDS011;28680;45.642;13.756;2022-12-20T01:20:45;27.23;;;14.00;;
35646;SDS011;28680;45.642;13.756;2022-12-20T01:23:11;31.40;;;15.52;;
35646;SDS011;28680;45.642;13.756;2022-12-20T01:25:37;29.70;;;14.52;;
35646;SDS011;28680;45.642;13.756;2022-12-20T01:28:03;27.77;;;14.65;;
35646;SDS011;28680;45.642;13.756;2022-12-20T01:30:29;29.83;;;14.90;;
35646;SDS011;28680;45.642;13.756;2022-12-20T01:32:54;27.50;;;14.55;;
35646;SDS011;28680;45.642;13.756;2022-12-20T01:35:20;26.20;;;14.40;;
35646;SDS011;28680;45.642;13.756;2022-12-20T01:37:46;28.65;;;14.43;;
35646;SDS011;28680;45.642;13.756;2022-12-20T01:40:12;28.58;;;15.02;;
35646;SDS011;28680;45.642;13.756;2022-12-20T01:42:38;29.45;;;14.55;;
35646;SDS011;28680;45.642;13.756;2022-12-20T01:45:06;26.27;;;13.73;;
35646;SDS011;28680;45.642;13.756;2022-12-20T01:47:44;23.85;;;13.30;;
35646;SDS011;28680;45.642;13.756;2022-12-20T01:50:10;25.38;;;13.80;;
35646;SDS011;28680;45.642;13.756;2022-12-20T01:52:38;28.90;;;13.88;;
35646;SDS011;28680;45.642;13.756;2022-12-20T01:55:25;26.73;;;13.43;;
35646;SDS011;28680;45.642;13.756;2022-12-20T01:57:57;27.10;;;13.85;;
35646;SDS011;28680;45.642;13.756;2022-12-20T02:00:30;26.70;;;14.90;;
35646;SDS011;28680;45.642;13.756;2022-12-20T02:02:59;29.17;;;14.05;;
35646;SDS011;28680;45.642;13.756;2022-12-20T02:05:37;27.92;;;13.77;;
35646;SDS011;28680;45.642;13.756;2022-12-20T02:08:09;28.85;;;14.27;;
35646;SDS011;28680;45.642;13.756;2022-12-20T02:16:52;30.25;;;15.88;;
35646;SDS011;28680;45.642;13.756;2022-12-20T02:27:53;23.92;;;13.35;;
35646;SDS011;28680;45.642;13.756;2022-12-20T02:30:40;25.33;;;13.93;;
35646;SDS011;28680;45.642;13.756;2022-12-20T02:33:10;23.55;;;13.07;;
35646;SDS011;28680;45.642;13.756;2022-12-20T02:35:39;24.70;;;13.95;;
35646;SDS011;28680;45.642;13.756;2022-12-20T02:41:01;25.42;;;13.90;;
35646;SDS011;28680;45.642;13.756;2022-12-20T02:43:36;30.23;;;13.90;;
35646;SDS011;28680;45.642;13.756;2022-12-20T02:46:25;29.98;;;14.68;;
35646;SDS011;28680;45.642;13.756;2022-12-20T02:48:53;25.13;;;13.30;;
35646;SDS011;28680;45.642;13.756;2022-12-20T02:51:23;24.60;;;13.57;;
35646;SDS011;28680;45.642;13.756;2022-12-20T02:53:52;25.42;;;13.68;;
35646;SDS011;28680;45.642;13.756;2022-12-20T02:56:19;26.67;;;14.13;;
35646;SDS011;28680;45.642;13.756;2022-12-20T03:01:36;25.60;;;13.80;;
35646;SDS011;28680;45.642;13.756;2022-12-20T03:04:09;27.67;;;14.63;;
35646;SDS011;28680;45.642;13.756;2022-12-20T03:06:35;27.77;;;13.88;;
35646;SDS011;28680;45.642;13.756;2022-12-20T03:09:01;25.05;;;13.07;;
35646;SDS011;28680;45.642;13.756;2022-12-20T03:11:27;28.77;;;14.38;;
35646;SDS011;28680;45.642;13.756;2022-12-20T03:13:53;25.05;;;13.77;;
35646;SDS011;28680;45.642;13.756;2022-12-20T03:16:19;26.13;;;13.90;;
35646;SDS011;28680;45.642;13.756;2022-12-20T03:18:45;27.13;;;14.10;;
35646;SDS011;28680;45.642;13.756;2022-12-20T03:21:12;27.55;;;14.50;;
35646;SDS011;28680;45.642;13.756;2022-12-20T03:23:37;29.10;;;14.50;;
35646;SDS011;28680;45.642;13.756;2022-12-20T03:26:03;25.20;;;13.63;;
35646;SDS011;28680;45.642;13.756;2022-12-20T03:28:29;26.25;;;13.73;;
35646;SDS011;28680;45.642;13.756;2022-12-20T03:30:55;25.25;;;14.05;;
35646;SDS011;28680;45.642;13.756;2022-12-20T03:33:21;25.33;;;14.10;;
35646;SDS011;28680;45.642;13.756;2022-12-20T03:35:47;25.60;;;13.50;;
35646;SDS011;28680;45.642;13.756;2022-12-20T03:38:13;24.30;;;13.13;;
35646;SDS011;28680;45.642;13.756;2022-12-20T03:40:38;29.65;;;13.95;;
35646;SDS011;28680;45.642;13.756;2022-12-20T03:43:04;28.67;;;14.13;;
35646;SDS011;28680;45.642;13.756;2022-12-20T03:45:30;22.92;;;12.90;;
35646;SDS011;28680;45.642;13.756;2022-12-20T03:47:56;29.20;;;14.10;;
35646;SDS011;28680;45.642;13.756;2022-12-20T03:50:22;24.50;;;13.32;;
35646;SDS011;28680;45.642;13.756;2022-12-20T03:52:47;26.17;;;13.77;;
35646;SDS011;28680;45.642;13.756;2022-12-20T03:55:13;27.73;;;14.32;;
35646;SDS011;28680;45.642;13.756;2022-12-20T03:57:39;28.67;;;14.57;;
35646;SDS011;28680;45.642;13.756;2022-12-20T04:00:06;26.85;;;13.75;;
35646;SDS011;28680;45.642;13.756;2022-12-20T04:02:33;26.02;;;14.45;;
35646;SDS011;28680;45.642;13.756;2022-12-20T04:04:58;26.48;;;14.43;;
35646;SDS011;28680;45.642;13.756;2022-12-20T04:07:24;24.23;;;14.05;;
35646;SDS011;28680;45.642;13.756;2022-12-20T04:09:50;29.63;;;14.07;;
35646;SDS011;28680;45.642;13.756;2022-12-20T04:12:16;26.55;;;13.70;;
35646;SDS011;28680;45.642;13.756;2022-12-20T04:14:42;29.52;;;14.30;;
35646;SDS011;28680;45.642;13.756;2022-12-20T04:17:08;26.88;;;13.43;;
35646;SDS011;28680;45.642;13.756;2022-12-20T04:19:34;25.70;;;12.80;;
35646;SDS011;28680;45.642;13.756;2022-12-20T04:21:59;23.02;;;11.73;;
35646;SDS011;28680;45.642;13.756;2022-12-20T04:24:27;23.20;;;12.45;;
35646;SDS011;28680;45.642;13.756;2022-12-20T04:26:54;24.63;;;13.13;;
35646;SDS011;28680;45.642;13.756;2022-12-20T04:29:19;24.75;;;13.40;;
35646;SDS011;28680;45.642;13.756;2022-12-20T04:31:45;26.50;;;13.18;;
35646;SDS011;28680;45.642;13.756;2022-12-20T04:34:11;25.48;;;13.23;;
35646;SDS011;28680;45.642;13.756;2022-12-20T04:36:37;24.80;;;13.02;;
35646;SDS011;28680;45.642;13.756;2022-12-20T04:39:03;24.88;;;13.20;;
35646;SDS011;28680;45.642;13.756;2022-12-20T04:41:29;23.35;;;13.80;;
35646;SDS011;28680;45.642;13.756;2022-12-20T04:43:55;27.95;;;13.63;;
35646;SDS011;28680;45.642;13.756;2022-12-20T04:46:23;25.98;;;14.27;;
35646;SDS011;28680;45.642;13.756;2022-12-20T04:48:50;29.13;;;15.05;;
35646;SDS011;28680;45.642;13.756;2022-12-20T04:51:16;28.73;;;14.65;;
35646;SDS011;28680;45.642;13.756;2022-12-20T04:53:42;29.58;;;15.75;;
35646;SDS011;28680;45.642;13.756;2022-12-20T04:56:13;27.73;;;15.32;;
35646;SDS011;28680;45.642;13.756;2022-12-20T04:58:44;25.88;;;14.25;;
35646;SDS011;28680;45.642;13.756;2022-12-20T05:01:11;26.65;;;14.65;;
35646;SDS011;28680;45.642;13.756;2022-12-20T05:03:37;29.35;;;14.85;;
35646;SDS011;28680;45.642;13.756;2022-12-20T05:06:04;27.08;;;14.13;;
35646;SDS011;28680;45.642;13.756;2022-12-20T05:08:31;27.15;;;14.07;;
35646;SDS011;28680;45.642;13.756;2022-12-20T05:10:57;26.33;;;14.93;;
35646;SDS011;28680;45.642;13.756;2022-12-20T05:13:23;27.13;;;13.77;;
35646;SDS011;28680;45.642;13.756;2022-12-20T05:15:52;26.95;;;15.38;;
35646;SDS011;28680;45.642;13.756;2022-12-20T05:18:20;27.58;;;14.73;;
35646;SDS011;28680;45.642;13.756;2022-12-20T05:20:46;27.95;;;13.90;;
35646;SDS011;28680;45.642;13.756;2022-12-20T05:23:12;28.48;;;14.60;;
35646;SDS011;28680;45.642;13.756;2022-12-20T05:25:57;26.52;;;13.30;;
35646;SDS011;28680;45.642;13.756;2022-12-20T05:28:41;25.85;;;14.02;;
35646;SDS011;28680;45.642;13.756;2022-12-20T05:31:07;27.15;;;14.88;;
35646;SDS011;28680;45.642;13.756;2022-12-20T05:33:33;26.88;;;14.15;;
35646;SDS011;28680;45.642;13.756;2022-12-20T05:35:59;27.83;;;14.35;;
35646;SDS011;28680;45.642;13.756;2022-12-20T05:38:25;27.35;;;14.80;;
35646;SDS011;28680;45.642;13.756;2022-12-20T05:40:51;25.50;;;13.80;;
35646;SDS011;28680;45.642;13.756;2022-12-20T05:43:17;23.70;;;13.23;;
35646;SDS011;28680;45.642;13.756;2022-12-20T05:45:48;28.25;;;14.63;;
35646;SDS011;28680;45.642;13.756;2022-12-20T05:48:17;23.88;;;13.00;;
35646;SDS011;28680;45.642;13.756;2022-12-20T05:50:44;26.35;;;13.30;;
35646;SDS011;28680;45.642;13.756;2022-12-20T05:53:11;24.33;;;13.77;;
35646;SDS011;28680;45.642;13.756;2022-12-20T05:55:48;31.25;;;15.70;;
35646;SDS011;28680;45.642;13.756;2022-12-20T05:58:17;24.95;;;13.80;;
35646;SDS011;28680;45.642;13.756;2022-12-20T06:00:43;26.15;;;14.13;;
35646;SDS011;28680;45.642;13.756;2022-12-20T06:03:11;24.95;;;13.02;;
35646;SDS011;28680;45.642;13.756;2022-12-20T06:05:39;24.33;;;12.35;;
35646;SDS011;28680;45.642;13.756;2022-12-20T06:08:06;28.13;;;14.52;;
35646;SDS011;28680;45.642;13.756;2022-12-20T06:10:34;23.65;;;12.43;;
35646;SDS011;28680;45.642;13.756;2022-12-20T06:13:00;27.75;;;13.15;;
35646;SDS011;28680;45.642;13.756;2022-12-20T06:15:27;24.20;;;12.65;;
35646;SDS011;28680;45.642;13.756;2022-12-20T06:17:54;27.08;;;13.48;;
35646;SDS011;28680;45.642;13.756;2022-12-20T06:20:20;27.13;;;14.38;;
35646;SDS011;28680;45.642;13.756;2022-12-20T06:22:46;27.80;;;13.00;;
35646;SDS011;28680;45.642;13.756;2022-12-20T06:25:11;25.30;;;14.05;;
35646;SDS011;28680;45.642;13.756;2022-12-20T06:27:39;24.75;;;13.43;;
35646;SDS011;28680;45.642;13.756;2022-12-20T06:30:06;24.23;;;12.82;;
35646;SDS011;28680;45.642;13.756;2022-12-20T06:32:34;27.75;;;13.45;;
35646;SDS011;28680;45.642;13.756;2022-12-20T06:34:59;25.90;;;13.05;;
35646;SDS011;28680;45.642;13.756;2022-12-20T06:37:25;24.05;;;12.80;;
35646;SDS011;28680;45.642;13.756;2022-12-20T06:39:52;26.25;;;13.93;;
35646;SDS011;28680;45.642;13.756;2022-12-20T06:42:18;28.13;;;13.43;;
35646;SDS011;28680;45.642;13.756;2022-12-20T06:44:44;27.67;;;13.80;;
35646;SDS011;28680;45.642;13.756;2022-12-20T06:47:10;26.27;;;13.55;;
35646;SDS011;28680;45.642;13.756;2022-12-20T06:49:35;25.00;;;13.05;;
35646;SDS011;28680;45.642;13.756;2022-12-20T06:52:01;24.15;;;13.27;;
35646;SDS011;28680;45.642;13.756;2022-12-20T06:54:27;25.10;;;13.07;;
35646;SDS011;28680;45.642;13.756;2022-12-20T06:56:53;26.38;;;13.23;;
35646;SDS011;28680;45.642;13.756;2022-12-20T06:59:19;26.08;;;13.88;;
35646;SDS011;28680;45.642;13.756;2022-12-20T07:01:45;27.15;;;14.73;;
35646;SDS011;28680;45.642;13.756;2022-12-20T07:04:11;29.73;;;15.32;;
35646;SDS011;28680;45.642;13.756;2022-12-20T07:06:37;25.00;;;13.93;;
35646;SDS011;28680;45.642;13.756;2022-12-20T07:09:02;28.80;;;14.23;;
35646;SDS011;28680;45.642;13.756;2022-12-20T07:11:29;37.58;;;17.65;;
35646;SDS011;28680;45.642;13.756;2022-12-20T07:13:55;28.15;;;14.60;;
35646;SDS011;28680;45.642;13.756;2022-12-20T07:16:22;29.20;;;14.93;;
35646;SDS011;28680;45.642;13.756;2022-12-20T07:18:51;35.47;;;15.25;;
35646;SDS011;28680;45.642;13.756;2022-12-20T07:21:18;32.05;;;15.00;;
35646;SDS011;28680;45.642;13.756;2022-12-20T07:23:45;25.88;;;13.27;;
35646;SDS011;28680;45.642;13.756;2022-12-20T07:26:12;25.08;;;13.25;;
35646;SDS011;28680;45.642;13.756;2022-12-20T07:28:39;25.17;;;13.15;;
35646;SDS011;28680;45.642;13.756;2022-12-20T07:31:06;27.38;;;13.27;;
35646;SDS011;28680;45.642;13.756;2022-12-20T07:33:33;28.92;;;13.43;;
35646;SDS011;28680;45.642;13.756;2022-12-20T07:36:00;22.23;;;12.40;;
35646;SDS011;28680;45.642;13.756;2022-12-20T07:38:31;25.95;;;14.35;;
35646;SDS011;28680;45.642;13.756;2022-12-20T07:40:59;26.08;;;14.00;;
35646;SDS011;28680;45.642;13.756;2022-12-20T07:43:30;29.35;;;14.95;;
35646;SDS011;28680;45.642;13.756;2022-12-20T07:45:57;28.48;;;14.70;;
35646;SDS011;28680;45.642;13.756;2022-12-20T07:48:23;29.67;;;13.90;;
35646;SDS011;28680;45.642;13.756;2022-12-20T07:50:52;26.75;;;14.90;;
35646;SDS011;28680;45.642;13.756;2022-12-20T07:53:26;34.55;;;13.80;;
35646;SDS011;28680;45.642;13.756;2022-12-20T07:55:56;28.63;;;12.60;;
35646;SDS011;28680;45.642;13.756;2022-12-20T07:58:24;29.75;;;13.68;;
35646;SDS011;28680;45.642;13.756;2022-12-20T08:00:51;28.40;;;13.85;;
35646;SDS011;28680;45.642;13.756;2022-12-20T08:03:18;27.42;;;13.93;;
35646;SDS011;28680;45.642;13.756;2022-12-20T08:05:54;29.77;;;14.48;;
35646;SDS011;28680;45.642;13.756;2022-12-20T08:08:24;33.42;;;14.20;;
35646;SDS011;28680;45.642;13.756;2022-12-20T08:10:50;30.88;;;15.75;;
35646;SDS011;28680;45.642;13.756;2022-12-20T08:13:16;27.80;;;13.82;;
35646;SDS011;28680;45.642;13.756;2022-12-20T08:15:43;27.23;;;13.60;;
35646;SDS011;28680;45.642;13.756;2022-12-20T08:18:08;27.08;;;14.30;;
35646;SDS011;28680;45.642;13.756;2022-12-20T08:20:34;25.10;;;12.90;;
35646;SDS011;28680;45.642;13.756;2022-12-20T08:23:02;25.00;;;13.27;;
35646;SDS011;28680;45.642;13.756;2022-12-20T08:25:28;28.20;;;13.77;;
35646;SDS011;28680;45.642;13.756;2022-12-20T08:27:54;21.95;;;11.63;;
35646;SDS011;28680;45.642;13.756;2022-12-20T08:30:20;28.15;;;13.50;;
35646;SDS011;28680;45.642;13.756;2022-12-20T08:32:46;27.38;;;14.00;;
35646;SDS011;28680;45.642;13.756;2022-12-20T08:35:12;45.60;;;16.75;;
35646;SDS011;28680;45.642;13.756;2022-12-20T08:37:38;28.25;;;13.57;;
35646;SDS011;28680;45.642;13.756;2022-12-20T08:40:04;26.20;;;13.68;;
35646;SDS011;28680;45.642;13.756;2022-12-20T08:42:31;26.92;;;12.93;;
35646;SDS011;28680;45.642;13.756;2022-12-20T08:44:57;24.63;;;13.35;;
35646;SDS011;28680;45.642;13.756;2022-12-20T08:47:23;27.05;;;13.85;;
35646;SDS011;28680;45.642;13.756;2022-12-20T08:49:49;28.27;;;14.35;;
35646;SDS011;28680;45.642;13.756;2022-12-20T08:52:15;25.50;;;14.00;;
35646;SDS011;28680;45.642;13.756;2022-12-20T08:54:40;28.60;;;14.75;;
35646;SDS011;28680;45.642;13.756;2022-12-20T08:57:07;28.30;;;14.32;;
35646;SDS011;28680;45.642;13.756;2022-12-20T08:59:33;28.52;;;14.95;;
35646;SDS011;28680;45.642;13.756;2022-12-20T09:01:59;25.38;;;14.75;;
35646;SDS011;28680;45.642;13.756;2022-12-20T09:04:24;32.72;;;16.30;;
35646;SDS011;28680;45.642;13.756;2022-12-20T09:06:50;33.83;;;15.38;;
35646;SDS011;28680;45.642;13.756;2022-12-20T09:09:16;32.95;;;15.80;;
35646;SDS011;28680;45.642;13.756;2022-12-20T09:11:42;35.72;;;15.60;;
35646;SDS011;28680;45.642;13.756;2022-12-20T09:14:08;32.13;;;15.15;;
35646;SDS011;28680;45.642;13.756;2022-12-20T09:16:34;28.75;;;15.55;;
35646;SDS011;28680;45.642;13.756;2022-12-20T09:19:00;32.25;;;16.08;;
35646;SDS011;28680;45.642;13.756;2022-12-20T09:21:27;27.30;;;15.00;;
35646;SDS011;28680;45.642;13.756;2022-12-20T09:23:54;29.58;;;15.82;;
35646;SDS011;28680;45.642;13.756;2022-12-20T09:26:22;29.52;;;15.90;;
35646;SDS011;28680;45.642;13.756;2022-12-20T09:28:48;28.25;;;14.90;;
35646;SDS011;28680;45.642;13.756;2022-12-20T09:31:17;29.42;;;15.02;;
35646;SDS011;28680;45.642;13.756;2022-12-20T09:33:48;30.45;;;15.40;;
35646;SDS011;28680;45.642;13.756;2022-12-20T09:36:19;28.75;;;15.85;;
35646;SDS011;28680;45.642;13.756;2022-12-20T09:38:47;26.63;;;14.70;;
35646;SDS011;28680;45.642;13.756;2022-12-20T09:41:33;27.50;;;14.77;;
35646;SDS011;28680;45.642;13.756;2022-12-20T09:44:06;31.40;;;16.52;;
35646;SDS011;28680;45.642;13.756;2022-12-20T09:47:05;30.58;;;15.32;;
35646;SDS011;28680;45.642;13.756;2022-12-20T09:49:47;27.45;;;14.90;;
35646;SDS011;28680;45.642;13.756;2022-12-20T09:58:03;28.67;;;14.25;;
35646;SDS011;28680;45.642;13.756;2022-12-20T10:00:48;29.98;;;14.40;;
35646;SDS011;28680;45.642;13.756;2022-12-20T10:03:18;27.88;;;15.27;;
35646;SDS011;28680;45.642;13.756;2022-12-20T10:05:50;25.33;;;14.10;;
35646;SDS011;28680;45.642;13.756;2022-12-20T10:08:31;33.28;;;15.73;;
35646;SDS011;28680;45.642;13.756;2022-12-20T10:16:52;30.20;;;15.90;;
35646;SDS011;28680;45.642;13.756;2022-12-20T10:19:33;27.58;;;14.98;;
35646;SDS011;28680;45.642;13.756;2022-12-20T10:22:17;28.00;;;15.65;;
35646;SDS011;28680;45.642;13.756;2022-12-20T10:25:13;33.35;;;15.68;;
35646;SDS011;28680;45.642;13.756;2022-12-20T10:27:56;31.30;;;16.92;;
35646;SDS011;28680;45.642;13.756;2022-12-20T10:30:25;31.52;;;16.58;;
35646;SDS011;28680;45.642;13.756;2022-12-20T10:32:54;32.03;;;16.95;;
35646;SDS011;28680;45.642;13.756;2022-12-20T10:40:27;32.97;;;17.67;;
35646;SDS011;28680;45.642;13.756;2022-12-20T10:43:14;38.17;;;18.58;;
35646;SDS011;28680;45.642;13.756;2022-12-20T10:46:01;40.90;;;21.02;;
35646;SDS011;28680;45.642;13.756;2022-12-20T10:48:40;35.88;;;17.95;;
35646;SDS011;28680;45.642;13.756;2022-12-20T10:53:34;42.40;;;20.38;;
35646;SDS011;28680;45.642;13.756;2022-12-20T10:56:18;32.28;;;16.83;;
35646;SDS011;28680;45.642;13.756;2022-12-20T11:01:42;32.47;;;17.48;;
35646;SDS011;28680;45.642;13.756;2022-12-20T11:04:24;32.47;;;17.75;;
35646;SDS011;28680;45.642;13.756;2022-12-20T11:06:54;33.80;;;18.42;;
35646;SDS011;28680;45.642;13.756;2022-12-20T11:12:14;37.00;;;19.55;;
35646;SDS011;28680;45.642;13.756;2022-12-20T11:14:43;39.78;;;19.88;;
35646;SDS011;28680;45.642;13.756;2022-12-20T11:20:12;37.70;;;18.48;;
35646;SDS011;28680;45.642;13.756;2022-12-20T11:34:03;41.85;;;20.83;;
35646;SDS011;28680;45.642;13.756;2022-12-20T11:36:51;45.42;;;21.35;;
35646;SDS011;28680;45.642;13.756;2022-12-20T11:43:03;45.05;;;21.95;;
35646;SDS011;28680;45.642;13.756;2022-12-20T11:55:19;41.22;;;20.23;;
35646;SDS011;28680;45.642;13.756;2022-12-20T12:00:33;41.55;;;20.67;;
35646;SDS011;28680;45.642;13.756;2022-12-20T12:08:12;44.95;;;20.52;;
35646;SDS011;28680;45.642;13.756;2022-12-20T12:10:59;45.45;;;20.67;;
35646;SDS011;28680;45.642;13.756;2022-12-20T12:13:34;46.70;;;19.30;;
35646;SDS011;28680;45.642;13.756;2022-12-20T12:16:08;47.63;;;20.65;;
35646;SDS011;28680;45.642;13.756;2022-12-20T12:19:04;43.67;;;20.08;;
35646;SDS011;28680;45.642;13.756;2022-12-20T12:21:43;47.78;;;20.67;;
35646;SDS011;28680;45.642;13.756;2022-12-20T12:24:35;44.67;;;20.88;;
35646;SDS011;28680;45.642;13.756;2022-12-20T12:27:20;44.60;;;21.05;;
35646;SDS011;28680;45.642;13.756;2022-12-20T12:29:49;46.83;;;21.00;;
35646;SDS011;28680;45.642;13.756;2022-12-20T12:47:00;50.00;;;22.52;;
35646;SDS011;28680;45.642;13.756;2022-12-20T12:49:37;48.13;;;21.13;;
35646;SDS011;28680;45.642;13.756;2022-12-20T12:52:05;50.58;;;22.45;;
35646;SDS011;28680;45.642;13.756;2022-12-20T12:54:38;50.55;;;22.45;;
35646;SDS011;28680;45.642;13.756;2022-12-20T12:57:06;48.47;;;23.25;;
35646;SDS011;28680;45.642;13.756;2022-12-20T13:07:45;49.05;;;22.27;;
35646;SDS011;28680;45.642;13.756;2022-12-20T13:12:46;57.45;;;23.95;;
35646;SDS011;28680;45.642;13.756;2022-12-20T13:33:42;63.83;;;24.55;;
35646;SDS011;28680;45.642;13.756;2022-12-20T13:38:53;61.67;;;25.80;;
35646;SDS011;28680;45.642;13.756;2022-12-20T13:41:32;60.33;;;25.63;;
35646;SDS011;28680;45.642;13.756;2022-12-20T13:44:35;65.20;;;25.13;;
35646;SDS011;28680;45.642;13.756;2022-12-20T13:49:58;67.97;;;25.20;;
35646;SDS011;28680;45.642;13.756;2022-12-20T13:52:30;75.32;;;28.42;;
35646;SDS011;28680;45.642;13.756;2022-12-20T13:55:06;69.25;;;26.45;;
35646;SDS011;28680;45.642;13.756;2022-12-20T13:57:49;70.72;;;26.58;;
35646;SDS011;28680;45.642;13.756;2022-12-20T14:00:17;64.50;;;25.75;;
35646;SDS011;28680;45.642;13.756;2022-12-20T14:02:49;67.20;;;26.53;;
35646;SDS011;28680;45.642;13.756;2022-12-20T14:05:21;72.13;;;28.35;;
35646;SDS011;28680;45.642;13.756;2022-12-20T14:08:01;66.72;;;25.55;;
35646;SDS011;28680;45.642;13.756;2022-12-20T14:10:32;69.55;;;27.05;;
35646;SDS011;28680;45.642;13.756;2022-12-20T14:12:59;65.93;;;26.15;;
35646;SDS011;28680;45.642;13.756;2022-12-20T14:15:32;64.95;;;24.15;;
35646;SDS011;28680;45.642;13.756;2022-12-20T14:18:14;68.00;;;27.33;;
35646;SDS011;28680;45.642;13.756;2022-12-20T14:20:40;65.95;;;25.75;;
35646;SDS011;28680;45.642;13.756;2022-12-20T14:23:14;75.75;;;28.35;;
35646;SDS011;28680;45.642;13.756;2022-12-20T14:25:53;76.55;;;28.80;;
35646;SDS011;28680;45.642;13.756;2022-12-20T14:31:28;74.57;;;26.67;;
35646;SDS011;28680;45.642;13.756;2022-12-20T14:36:37;71.40;;;27.15;;
35646;SDS011;28680;45.642;13.756;2022-12-20T14:39:20;77.40;;;27.75;;
35646;SDS011;28680;45.642;13.756;2022-12-20T14:41:56;65.03;;;25.25;;
35646;SDS011;28680;45.642;13.756;2022-12-20T14:44:29;75.05;;;27.08;;
35646;SDS011;28680;45.642;13.756;2022-12-20T14:47:00;75.47;;;28.10;;
35646;SDS011;28680;45.642;13.756;2022-12-20T14:50:34;66.95;;;27.15;;
35646;SDS011;28680;45.642;13.756;2022-12-20T14:52:46;76.60;;;28.15;;
35646;SDS011;28680;45.642;13.756;2022-12-20T14:55:20;57.90;;;24.90;;
35646;SDS011;28680;45.642;13.756;2022-12-20T14:57:53;52.60;;;22.52;;
35646;SDS011;28680;45.642;13.756;2022-12-20T15:00:22;45.85;;;22.48;;
35646;SDS011;28680;45.642;13.756;2022-12-20T15:05:55;57.28;;;23.38;;
35646;SDS011;28680;45.642;13.756;2022-12-20T15:13:39;40.67;;;19.80;;
35646;SDS011;28680;45.642;13.756;2022-12-20T15:16:14;39.10;;;20.60;;
35646;SDS011;28680;45.642;13.756;2022-12-20T15:18:49;41.83;;;20.77;;
35646;SDS011;28680;45.642;13.756;2022-12-20T15:24:01;37.88;;;19.95;;
35646;SDS011;28680;45.642;13.756;2022-12-20T15:26:33;37.75;;;19.55;;
35646;SDS011;28680;45.642;13.756;2022-12-20T15:29:00;38.72;;;21.05;;
35646;SDS011;28680;45.642;13.756;2022-12-20T15:31:26;36.17;;;19.45;;
35646;SDS011;28680;45.642;13.756;2022-12-20T15:33:53;38.67;;;21.13;;
35646;SDS011;28680;45.642;13.756;2022-12-20T15:36:26;40.92;;;20.95;;
35646;SDS011;28680;45.642;13.756;2022-12-20T15:38:53;39.13;;;20.25;;
35646;SDS011;28680;45.642;13.756;2022-12-20T15:43:54;37.33;;;19.35;;
35646;SDS011;28680;45.642;13.756;2022-12-20T15:46:22;41.75;;;22.23;;
35646;SDS011;28680;45.642;13.756;2022-12-20T15:48:48;34.75;;;19.08;;
35646;SDS011;28680;45.642;13.756;2022-12-20T15:51:36;36.63;;;19.95;;
35646;SDS011;28680;45.642;13.756;2022-12-20T15:54:06;37.30;;;19.65;;
35646;SDS011;28680;45.642;13.756;2022-12-20T15:56:42;36.72;;;19.52;;
35646;SDS011;28680;45.642;13.756;2022-12-20T15:59:08;37.38;;;19.30;;
35646;SDS011;28680;45.642;13.756;2022-12-20T16:01:36;34.30;;;18.83;;
35646;SDS011;28680;45.642;13.756;2022-12-20T16:04:03;37.83;;;19.27;;
35646;SDS011;28680;45.642;13.756;2022-12-20T16:06:31;35.33;;;18.73;;
35646;SDS011;28680;45.642;13.756;2022-12-20T16:08:58;35.30;;;19.55;;
35646;SDS011;28680;45.642;13.756;2022-12-20T16:11:24;35.60;;;19.33;;
35646;SDS011;28680;45.642;13.756;2022-12-20T16:13:53;39.03;;;19.60;;
35646;SDS011;28680;45.642;13.756;2022-12-20T16:16:25;34.55;;;18.35;;
35646;SDS011;28680;45.642;13.756;2022-12-20T16:18:54;33.88;;;18.80;;
35646;SDS011;28680;45.642;13.756;2022-12-20T16:21:21;37.70;;;20.13;;
35646;SDS011;28680;45.642;13.756;2022-12-20T16:23:56;35.42;;;19.45;;
35646;SDS011;28680;45.642;13.756;2022-12-20T16:26:23;37.55;;;19.33;;
35646;SDS011;28680;45.642;13.756;2022-12-20T16:28:51;32.28;;;18.02;;
35646;SDS011;28680;45.642;13.756;2022-12-20T16:31:27;39.72;;;18.85;;
35646;SDS011;28680;45.642;13.756;2022-12-20T16:34:06;37.88;;;18.70;;
35646;SDS011;28680;45.642;13.756;2022-12-20T16:36:40;35.58;;;18.70;;
35646;SDS011;28680;45.642;13.756;2022-12-20T16:39:07;38.72;;;20.38;;
35646;SDS011;28680;45.642;13.756;2022-12-20T16:41:34;37.00;;;18.73;;
35646;SDS011;28680;45.642;13.756;2022-12-20T16:44:01;39.08;;;20.83;;
35646;SDS011;28680;45.642;13.756;2022-12-20T16:46:31;38.13;;;19.75;;
35646;SDS011;28680;45.642;13.756;2022-12-20T16:48:59;36.10;;;19.67;;
35646;SDS011;28680;45.642;13.756;2022-12-20T16:51:26;37.08;;;19.67;;
35646;SDS011;28680;45.642;13.756;2022-12-20T16:54:03;37.92;;;19.42;;